sensor_id;sensor_type;location;lat;lon;timestamp;P1;durP1;ratioP1;P2;durP2;ratioP2
76380;SDS011;65202;52.520;10.528;2023-07-29T00:00:49;12.85;;;10.70;;
76380;SDS011;65202;52.520;10.528;2023-07-29T00:03:16;15.15;;;12.00;;
76380;SDS011;65202;52.520;10.528;2023-07-29T00:05:44;16.77;;;12.15;;
76380;SDS011;65202;52.520;10.528;2023-07-29T00:08:12;17.63;;;11.90;;
76380;SDS011;65202;52.520;10.528;2023-07-29T00:10:39;14.52;;;12.43;;
76380;SDS011;65202;52.520;10.528;2023-07-29T00:13:06;15.60;;;12.15;;
76380;SDS011;65202;52.520;10.528;2023-07-29T00:15:34;14.95;;;12.20;;
76380;SDS011;65202;52.520;10.528;2023-07-29T00:18:02;17.08;;;12.98;;
76380;SDS011;65202;52.520;10.528;2023-07-29T00:20:29;17.55;;;12.15;;
76380;SDS011;65202;52.520;10.528;2023-07-29T00:22:56;15.60;;;11.35;;
76380;SDS011;65202;52.520;10.528;2023-07-29T00:25:25;12.50;;;11.20;;
76380;SDS011;65202;52.520;10.528;2023-07-29T00:27:54;15.55;;;11.20;;
76380;SDS011;65202;52.520;10.528;2023-07-29T00:32:52;13.25;;;10.45;;
76380;SDS011;65202;52.520;10.528;2023-07-29T00:35:19;12.60;;;9.63;;
76380;SDS011;65202;52.520;10.528;2023-07-29T00:37:46;16.30;;;10.30;;
76380;SDS011;65202;52.520;10.528;2023-07-29T00:40:15;12.52;;;9.02;;
76380;SDS011;65202;52.520;10.528;2023-07-29T00:42:49;12.82;;;9.02;;
76380;SDS011;65202;52.520;10.528;2023-07-29T00:45:20;17.42;;;9.30;;
76380;SDS011;65202;52.520;10.528;2023-07-29T00:47:47;13.43;;;9.77;;
76380;SDS011;65202;52.520;10.528;2023-07-29T00:50:15;11.40;;;8.88;;
76380;SDS011;65202;52.520;10.528;2023-07-29T00:52:42;11.95;;;9.20;;
76380;SDS011;65202;52.520;10.528;2023-07-29T00:55:10;12.38;;;8.98;;
76380;SDS011;65202;52.520;10.528;2023-07-29T00:57:38;15.55;;;9.70;;
76380;SDS011;65202;52.520;10.528;2023-07-29T01:00:07;13.15;;;8.77;;
76380;SDS011;65202;52.520;10.528;2023-07-29T01:02:35;13.85;;;8.90;;
76380;SDS011;65202;52.520;10.528;2023-07-29T01:05:03;14.10;;;8.43;;
76380;SDS011;65202;52.520;10.528;2023-07-29T01:07:33;13.00;;;8.77;;
76380;SDS011;65202;52.520;10.528;2023-07-29T01:16:07;11.40;;;7.68;;
76380;SDS011;65202;52.520;10.528;2023-07-29T01:18:45;11.45;;;7.43;;
76380;SDS011;65202;52.520;10.528;2023-07-29T01:21:16;10.15;;;7.50;;
76380;SDS011;65202;52.520;10.528;2023-07-29T01:23:46;10.50;;;8.07;;
76380;SDS011;65202;52.520;10.528;2023-07-29T01:26:13;14.27;;;7.53;;
76380;SDS011;65202;52.520;10.528;2023-07-29T01:28:40;13.82;;;7.65;;
76380;SDS011;65202;52.520;10.528;2023-07-29T01:34:25;10.75;;;7.22;;
76380;SDS011;65202;52.520;10.528;2023-07-29T01:36:59;12.50;;;7.57;;
76380;SDS011;65202;52.520;10.528;2023-07-29T01:39:33;9.93;;;7.20;;
76380;SDS011;65202;52.520;10.528;2023-07-29T01:42:04;12.48;;;6.40;;
76380;SDS011;65202;52.520;10.528;2023-07-29T01:44:33;8.38;;;6.45;;
76380;SDS011;65202;52.520;10.528;2023-07-29T01:47:01;12.43;;;5.80;;
76380;SDS011;65202;52.520;10.528;2023-07-29T01:49:28;10.85;;;5.53;;
76380;SDS011;65202;52.520;10.528;2023-07-29T01:51:55;7.85;;;5.20;;
76380;SDS011;65202;52.520;10.528;2023-07-29T01:54:23;9.32;;;5.30;;
76380;SDS011;65202;52.520;10.528;2023-07-29T01:56:50;11.40;;;5.60;;
76380;SDS011;65202;52.520;10.528;2023-07-29T01:59:18;10.40;;;5.40;;
76380;SDS011;65202;52.520;10.528;2023-07-29T02:01:45;7.65;;;4.82;;
76380;SDS011;65202;52.520;10.528;2023-07-29T02:04:13;7.10;;;4.70;;
76380;SDS011;65202;52.520;10.528;2023-07-29T02:06:40;7.28;;;4.88;;
76380;SDS011;65202;52.520;10.528;2023-07-29T02:09:07;7.40;;;4.60;;
76380;SDS011;65202;52.520;10.528;2023-07-29T02:11:35;7.07;;;4.15;;
76380;SDS011;65202;52.520;10.528;2023-07-29T02:14:02;7.95;;;4.03;;
76380;SDS011;65202;52.520;10.528;2023-07-29T02:16:30;9.05;;;4.32;;
76380;SDS011;65202;52.520;10.528;2023-07-29T02:18:57;6.05;;;4.32;;
76380;SDS011;65202;52.520;10.528;2023-07-29T02:21:24;8.15;;;4.03;;
76380;SDS011;65202;52.520;10.528;2023-07-29T02:23:51;7.38;;;3.97;;
76380;SDS011;65202;52.520;10.528;2023-07-29T02:26:19;7.30;;;4.07;;
76380;SDS011;65202;52.520;10.528;2023-07-29T02:28:46;9.07;;;3.88;;
76380;SDS011;65202;52.520;10.528;2023-07-29T02:31:15;6.20;;;3.80;;
76380;SDS011;65202;52.520;10.528;2023-07-29T02:33:44;9.63;;;3.88;;
76380;SDS011;65202;52.520;10.528;2023-07-29T02:36:11;6.95;;;3.67;;
76380;SDS011;65202;52.520;10.528;2023-07-29T02:38:40;4.80;;;3.42;;
76380;SDS011;65202;52.520;10.528;2023-07-29T02:41:08;5.97;;;3.53;;
76380;SDS011;65202;52.520;10.528;2023-07-29T02:43:39;6.05;;;3.42;;
76380;SDS011;65202;52.520;10.528;2023-07-29T02:46:07;4.28;;;3.33;;
76380;SDS011;65202;52.520;10.528;2023-07-29T02:48:35;3.88;;;3.58;;
76380;SDS011;65202;52.520;10.528;2023-07-29T02:51:02;5.32;;;3.50;;
76380;SDS011;65202;52.520;10.528;2023-07-29T02:53:30;6.68;;;3.30;;
76380;SDS011;65202;52.520;10.528;2023-07-29T02:55:57;6.13;;;3.33;;
76380;SDS011;65202;52.520;10.528;2023-07-29T02:58:24;4.28;;;3.35;;
76380;SDS011;65202;52.520;10.528;2023-07-29T03:00:53;6.95;;;3.28;;
76380;SDS011;65202;52.520;10.528;2023-07-29T03:03:20;4.85;;;3.30;;
76380;SDS011;65202;52.520;10.528;2023-07-29T03:05:48;5.15;;;3.55;;
76380;SDS011;65202;52.520;10.528;2023-07-29T03:08:15;4.30;;;3.05;;
76380;SDS011;65202;52.520;10.528;2023-07-29T03:10:42;6.07;;;3.10;;
76380;SDS011;65202;52.520;10.528;2023-07-29T03:13:09;6.63;;;3.78;;
76380;SDS011;65202;52.520;10.528;2023-07-29T03:15:36;5.03;;;3.45;;
76380;SDS011;65202;52.520;10.528;2023-07-29T03:18:04;3.97;;;3.28;;
76380;SDS011;65202;52.520;10.528;2023-07-29T03:20:31;7.07;;;3.65;;
76380;SDS011;65202;52.520;10.528;2023-07-29T03:22:59;9.88;;;3.50;;
76380;SDS011;65202;52.520;10.528;2023-07-29T03:25:26;5.10;;;3.38;;
76380;SDS011;65202;52.520;10.528;2023-07-29T03:27:53;6.80;;;3.30;;
76380;SDS011;65202;52.520;10.528;2023-07-29T03:30:21;3.92;;;3.00;;
76380;SDS011;65202;52.520;10.528;2023-07-29T03:32:49;5.10;;;3.50;;
76380;SDS011;65202;52.520;10.528;2023-07-29T03:35:17;9.70;;;5.72;;
76380;SDS011;65202;52.520;10.528;2023-07-29T03:37:44;10.65;;;7.20;;
76380;SDS011;65202;52.520;10.528;2023-07-29T03:40:11;9.65;;;4.85;;
76380;SDS011;65202;52.520;10.528;2023-07-29T03:42:38;7.07;;;4.70;;
76380;SDS011;65202;52.520;10.528;2023-07-29T03:45:06;8.45;;;4.40;;
76380;SDS011;65202;52.520;10.528;2023-07-29T03:47:33;6.20;;;4.10;;
76380;SDS011;65202;52.520;10.528;2023-07-29T03:50:01;8.20;;;3.35;;
76380;SDS011;65202;52.520;10.528;2023-07-29T03:52:29;8.90;;;2.83;;
76380;SDS011;65202;52.520;10.528;2023-07-29T03:54:56;5.68;;;3.00;;
76380;SDS011;65202;52.520;10.528;2023-07-29T03:57:23;6.65;;;4.43;;
76380;SDS011;65202;52.520;10.528;2023-07-29T03:59:50;23.70;;;16.58;;
76380;SDS011;65202;52.520;10.528;2023-07-29T04:02:18;9.38;;;4.78;;
76380;SDS011;65202;52.520;10.528;2023-07-29T04:04:45;9.27;;;3.28;;
76380;SDS011;65202;52.520;10.528;2023-07-29T04:07:14;4.60;;;3.00;;
76380;SDS011;65202;52.520;10.528;2023-07-29T04:09:42;6.03;;;3.20;;
76380;SDS011;65202;52.520;10.528;2023-07-29T04:12:10;4.32;;;3.00;;
76380;SDS011;65202;52.520;10.528;2023-07-29T04:14:38;6.18;;;3.22;;
76380;SDS011;65202;52.520;10.528;2023-07-29T04:17:05;6.53;;;2.75;;
76380;SDS011;65202;52.520;10.528;2023-07-29T04:19:32;4.07;;;3.20;;
76380;SDS011;65202;52.520;10.528;2023-07-29T04:22:00;7.72;;;2.97;;
76380;SDS011;65202;52.520;10.528;2023-07-29T04:24:27;4.50;;;2.97;;
76380;SDS011;65202;52.520;10.528;2023-07-29T04:26:54;5.57;;;3.13;;
76380;SDS011;65202;52.520;10.528;2023-07-29T04:29:22;4.57;;;2.92;;
76380;SDS011;65202;52.520;10.528;2023-07-29T04:31:52;6.65;;;2.92;;
76380;SDS011;65202;52.520;10.528;2023-07-29T04:34:20;5.88;;;3.15;;
76380;SDS011;65202;52.520;10.528;2023-07-29T04:36:47;3.28;;;2.97;;
76380;SDS011;65202;52.520;10.528;2023-07-29T04:39:15;4.03;;;2.92;;
76380;SDS011;65202;52.520;10.528;2023-07-29T04:41:42;4.07;;;2.75;;
76380;SDS011;65202;52.520;10.528;2023-07-29T04:44:10;5.97;;;2.78;;
76380;SDS011;65202;52.520;10.528;2023-07-29T04:46:37;4.32;;;3.00;;
76380;SDS011;65202;52.520;10.528;2023-07-29T04:49:05;6.40;;;3.13;;
76380;SDS011;65202;52.520;10.528;2023-07-29T04:51:32;10.50;;;3.30;;
76380;SDS011;65202;52.520;10.528;2023-07-29T04:54:00;7.38;;;3.15;;
76380;SDS011;65202;52.520;10.528;2023-07-29T04:56:27;4.88;;;3.08;;
76380;SDS011;65202;52.520;10.528;2023-07-29T04:58:54;4.32;;;3.38;;
76380;SDS011;65202;52.520;10.528;2023-07-29T05:01:21;13.15;;;3.75;;
76380;SDS011;65202;52.520;10.528;2023-07-29T05:03:49;5.35;;;3.65;;
76380;SDS011;65202;52.520;10.528;2023-07-29T05:06:16;3.70;;;2.85;;
76380;SDS011;65202;52.520;10.528;2023-07-29T05:08:43;5.90;;;3.50;;
76380;SDS011;65202;52.520;10.528;2023-07-29T05:11:10;7.00;;;3.72;;
76380;SDS011;65202;52.520;10.528;2023-07-29T05:13:38;3.80;;;3.40;;
76380;SDS011;65202;52.520;10.528;2023-07-29T05:16:05;6.95;;;3.60;;
76380;SDS011;65202;52.520;10.528;2023-07-29T05:18:33;4.13;;;3.58;;
76380;SDS011;65202;52.520;10.528;2023-07-29T05:21:00;5.43;;;3.80;;
76380;SDS011;65202;52.520;10.528;2023-07-29T05:23:27;5.10;;;3.80;;
76380;SDS011;65202;52.520;10.528;2023-07-29T05:25:54;10.43;;;4.13;;
76380;SDS011;65202;52.520;10.528;2023-07-29T05:28:22;5.38;;;3.78;;
76380;SDS011;65202;52.520;10.528;2023-07-29T05:30:49;5.78;;;3.83;;
76380;SDS011;65202;52.520;10.528;2023-07-29T05:33:16;4.35;;;3.95;;
76380;SDS011;65202;52.520;10.528;2023-07-29T05:35:43;6.63;;;4.10;;
76380;SDS011;65202;52.520;10.528;2023-07-29T05:38:11;7.82;;;3.63;;
76380;SDS011;65202;52.520;10.528;2023-07-29T05:40:38;4.85;;;4.00;;
76380;SDS011;65202;52.520;10.528;2023-07-29T05:43:05;7.72;;;3.75;;
76380;SDS011;65202;52.520;10.528;2023-07-29T05:45:32;5.38;;;3.70;;
76380;SDS011;65202;52.520;10.528;2023-07-29T05:48:00;6.75;;;4.10;;
76380;SDS011;65202;52.520;10.528;2023-07-29T05:50:27;5.15;;;3.55;;
76380;SDS011;65202;52.520;10.528;2023-07-29T05:52:54;4.95;;;4.18;;
76380;SDS011;65202;52.520;10.528;2023-07-29T05:55:21;7.35;;;3.95;;
76380;SDS011;65202;52.520;10.528;2023-07-29T05:57:48;4.00;;;3.60;;
76380;SDS011;65202;52.520;10.528;2023-07-29T06:00:16;8.27;;;3.75;;
76380;SDS011;65202;52.520;10.528;2023-07-29T06:02:43;6.65;;;3.72;;
76380;SDS011;65202;52.520;10.528;2023-07-29T06:05:10;6.15;;;3.78;;
76380;SDS011;65202;52.520;10.528;2023-07-29T06:07:38;5.03;;;3.85;;
76380;SDS011;65202;52.520;10.528;2023-07-29T06:10:05;5.45;;;3.78;;
76380;SDS011;65202;52.520;10.528;2023-07-29T06:12:33;7.97;;;3.50;;
76380;SDS011;65202;52.520;10.528;2023-07-29T06:15:00;7.65;;;3.80;;
76380;SDS011;65202;52.520;10.528;2023-07-29T06:17:27;7.68;;;3.72;;
76380;SDS011;65202;52.520;10.528;2023-07-29T06:19:54;8.02;;;3.85;;
76380;SDS011;65202;52.520;10.528;2023-07-29T06:22:22;4.55;;;3.60;;
76380;SDS011;65202;52.520;10.528;2023-07-29T06:24:49;11.75;;;4.32;;
76380;SDS011;65202;52.520;10.528;2023-07-29T06:27:16;8.18;;;4.03;;
76380;SDS011;65202;52.520;10.528;2023-07-29T06:29:43;9.05;;;3.97;;
76380;SDS011;65202;52.520;10.528;2023-07-29T06:32:10;9.88;;;4.57;;
76380;SDS011;65202;52.520;10.528;2023-07-29T06:34:38;15.93;;;10.73;;
76380;SDS011;65202;52.520;10.528;2023-07-29T06:37:05;11.45;;;5.63;;
76380;SDS011;65202;52.520;10.528;2023-07-29T06:39:33;12.10;;;4.57;;
76380;SDS011;65202;52.520;10.528;2023-07-29T06:42:00;10.45;;;5.40;;
76380;SDS011;65202;52.520;10.528;2023-07-29T06:44:28;8.85;;;4.40;;
76380;SDS011;65202;52.520;10.528;2023-07-29T06:46:57;10.57;;;5.43;;
76380;SDS011;65202;52.520;10.528;2023-07-29T06:49:25;5.00;;;4.20;;
76380;SDS011;65202;52.520;10.528;2023-07-29T06:51:52;5.68;;;4.72;;
76380;SDS011;65202;52.520;10.528;2023-07-29T06:54:19;6.57;;;4.40;;
76380;SDS011;65202;52.520;10.528;2023-07-29T06:56:52;11.02;;;4.40;;
76380;SDS011;65202;52.520;10.528;2023-07-29T06:59:20;8.65;;;4.40;;
76380;SDS011;65202;52.520;10.528;2023-07-29T07:01:47;6.90;;;4.70;;
76380;SDS011;65202;52.520;10.528;2023-07-29T07:04:15;8.40;;;4.10;;
76380;SDS011;65202;52.520;10.528;2023-07-29T07:06:42;7.53;;;4.28;;
76380;SDS011;65202;52.520;10.528;2023-07-29T07:09:09;6.35;;;4.32;;
76380;SDS011;65202;52.520;10.528;2023-07-29T07:11:36;7.20;;;4.70;;
76380;SDS011;65202;52.520;10.528;2023-07-29T07:14:03;7.47;;;4.55;;
76380;SDS011;65202;52.520;10.528;2023-07-29T07:16:31;7.25;;;4.78;;
76380;SDS011;65202;52.520;10.528;2023-07-29T07:18:58;7.00;;;4.82;;
76380;SDS011;65202;52.520;10.528;2023-07-29T07:21:25;7.13;;;5.40;;
76380;SDS011;65202;52.520;10.528;2023-07-29T07:23:52;6.55;;;5.50;;
76380;SDS011;65202;52.520;10.528;2023-07-29T07:26:20;7.45;;;5.47;;
76380;SDS011;65202;52.520;10.528;2023-07-29T07:28:47;5.80;;;5.18;;
76380;SDS011;65202;52.520;10.528;2023-07-29T07:31:14;8.82;;;5.20;;
76380;SDS011;65202;52.520;10.528;2023-07-29T07:33:46;10.32;;;4.80;;
76380;SDS011;65202;52.520;10.528;2023-07-29T07:36:13;6.22;;;4.32;;
76380;SDS011;65202;52.520;10.528;2023-07-29T07:38:42;7.35;;;4.28;;
76380;SDS011;65202;52.520;10.528;2023-07-29T07:41:09;6.18;;;4.07;;
76380;SDS011;65202;52.520;10.528;2023-07-29T07:43:37;7.15;;;4.20;;
76380;SDS011;65202;52.520;10.528;2023-07-29T07:46:04;4.25;;;3.85;;
76380;SDS011;65202;52.520;10.528;2023-07-29T07:48:32;5.00;;;4.15;;
76380;SDS011;65202;52.520;10.528;2023-07-29T07:51:00;6.65;;;4.38;;
76380;SDS011;65202;52.520;10.528;2023-07-29T07:53:27;8.15;;;4.82;;
76380;SDS011;65202;52.520;10.528;2023-07-29T07:55:54;7.35;;;4.65;;
76380;SDS011;65202;52.520;10.528;2023-07-29T07:58:21;5.55;;;4.00;;
76380;SDS011;65202;52.520;10.528;2023-07-29T08:00:48;6.53;;;4.43;;
76380;SDS011;65202;52.520;10.528;2023-07-29T08:03:17;5.50;;;4.43;;
76380;SDS011;65202;52.520;10.528;2023-07-29T08:05:44;5.88;;;3.97;;
76380;SDS011;65202;52.520;10.528;2023-07-29T08:08:12;6.70;;;4.47;;
76380;SDS011;65202;52.520;10.528;2023-07-29T08:10:39;7.22;;;4.30;;
76380;SDS011;65202;52.520;10.528;2023-07-29T08:13:06;8.15;;;4.50;;
76380;SDS011;65202;52.520;10.528;2023-07-29T08:15:33;4.80;;;4.00;;
76380;SDS011;65202;52.520;10.528;2023-07-29T08:18:01;11.57;;;4.10;;
76380;SDS011;65202;52.520;10.528;2023-07-29T08:20:28;6.45;;;4.28;;
76380;SDS011;65202;52.520;10.528;2023-07-29T08:22:56;5.18;;;4.22;;
76380;SDS011;65202;52.520;10.528;2023-07-29T08:25:23;8.52;;;4.95;;
76380;SDS011;65202;52.520;10.528;2023-07-29T08:27:50;8.27;;;5.85;;
76380;SDS011;65202;52.520;10.528;2023-07-29T08:30:17;5.88;;;4.50;;
76380;SDS011;65202;52.520;10.528;2023-07-29T08:32:45;7.88;;;4.50;;
76380;SDS011;65202;52.520;10.528;2023-07-29T08:35:13;7.70;;;4.45;;
76380;SDS011;65202;52.520;10.528;2023-07-29T08:37:40;5.93;;;4.68;;
76380;SDS011;65202;52.520;10.528;2023-07-29T08:40:08;6.10;;;4.20;;
76380;SDS011;65202;52.520;10.528;2023-07-29T08:42:35;7.40;;;4.50;;
76380;SDS011;65202;52.520;10.528;2023-07-29T08:45:06;6.95;;;4.40;;
76380;SDS011;65202;52.520;10.528;2023-07-29T08:47:35;4.88;;;4.20;;
76380;SDS011;65202;52.520;10.528;2023-07-29T08:50:02;6.03;;;4.28;;
76380;SDS011;65202;52.520;10.528;2023-07-29T08:52:30;5.72;;;4.15;;
76380;SDS011;65202;52.520;10.528;2023-07-29T08:54:59;6.55;;;3.70;;
76380;SDS011;65202;52.520;10.528;2023-07-29T08:57:27;3.35;;;3.05;;
76380;SDS011;65202;52.520;10.528;2023-07-29T08:59:55;4.18;;;3.72;;
76380;SDS011;65202;52.520;10.528;2023-07-29T09:02:23;6.75;;;4.00;;
76380;SDS011;65202;52.520;10.528;2023-07-29T09:04:50;5.10;;;3.30;;
76380;SDS011;65202;52.520;10.528;2023-07-29T09:07:18;6.57;;;3.15;;
76380;SDS011;65202;52.520;10.528;2023-07-29T09:09:47;4.63;;;3.13;;
76380;SDS011;65202;52.520;10.528;2023-07-29T09:12:14;4.05;;;3.15;;
76380;SDS011;65202;52.520;10.528;2023-07-29T09:14:42;5.03;;;3.75;;
76380;SDS011;65202;52.520;10.528;2023-07-29T09:17:09;4.75;;;3.58;;
76380;SDS011;65202;52.520;10.528;2023-07-29T09:19:38;4.20;;;3.28;;
76380;SDS011;65202;52.520;10.528;2023-07-29T09:22:08;5.80;;;3.17;;
76380;SDS011;65202;52.520;10.528;2023-07-29T09:24:46;4.70;;;3.25;;
76380;SDS011;65202;52.520;10.528;2023-07-29T09:27:24;3.47;;;2.90;;
76380;SDS011;65202;52.520;10.528;2023-07-29T09:29:55;3.70;;;2.45;;
76380;SDS011;65202;52.520;10.528;2023-07-29T09:32:24;5.80;;;2.80;;
76380;SDS011;65202;52.520;10.528;2023-07-29T09:34:52;2.63;;;2.10;;
76380;SDS011;65202;52.520;10.528;2023-07-29T09:37:22;2.78;;;2.20;;
76380;SDS011;65202;52.520;10.528;2023-07-29T09:39:50;3.03;;;2.17;;
76380;SDS011;65202;52.520;10.528;2023-07-29T09:42:19;7.15;;;2.40;;
76380;SDS011;65202;52.520;10.528;2023-07-29T09:44:48;4.32;;;3.63;;
76380;SDS011;65202;52.520;10.528;2023-07-29T09:47:20;5.93;;;3.22;;
76380;SDS011;65202;52.520;10.528;2023-07-29T09:49:50;5.35;;;3.10;;
76380;SDS011;65202;52.520;10.528;2023-07-29T09:52:19;6.00;;;3.08;;
76380;SDS011;65202;52.520;10.528;2023-07-29T09:54:49;5.47;;;3.17;;
76380;SDS011;65202;52.520;10.528;2023-07-29T09:57:17;4.43;;;3.33;;
76380;SDS011;65202;52.520;10.528;2023-07-29T09:59:55;3.70;;;2.95;;
76380;SDS011;65202;52.520;10.528;2023-07-29T10:02:23;5.60;;;3.92;;
76380;SDS011;65202;52.520;10.528;2023-07-29T10:04:54;4.18;;;3.70;;
76380;SDS011;65202;52.520;10.528;2023-07-29T10:07:23;5.22;;;3.88;;
76380;SDS011;65202;52.520;10.528;2023-07-29T10:09:51;5.35;;;3.83;;
76380;SDS011;65202;52.520;10.528;2023-07-29T10:12:20;6.05;;;3.80;;
76380;SDS011;65202;52.520;10.528;2023-07-29T10:14:48;8.02;;;4.00;;
76380;SDS011;65202;52.520;10.528;2023-07-29T10:17:17;4.20;;;3.80;;
76380;SDS011;65202;52.520;10.528;2023-07-29T10:19:47;7.25;;;4.75;;
76380;SDS011;65202;52.520;10.528;2023-07-29T10:22:16;8.45;;;4.93;;
76380;SDS011;65202;52.520;10.528;2023-07-29T10:24:48;4.85;;;4.18;;
76380;SDS011;65202;52.520;10.528;2023-07-29T10:27:18;6.25;;;4.03;;
76380;SDS011;65202;52.520;10.528;2023-07-29T10:29:47;5.50;;;4.00;;
76380;SDS011;65202;52.520;10.528;2023-07-29T10:32:16;4.95;;;4.53;;
76380;SDS011;65202;52.520;10.528;2023-07-29T10:34:43;7.97;;;6.18;;
76380;SDS011;65202;52.520;10.528;2023-07-29T10:37:11;7.78;;;6.20;;
76380;SDS011;65202;52.520;10.528;2023-07-29T10:39:39;8.88;;;7.28;;
76380;SDS011;65202;52.520;10.528;2023-07-29T10:42:07;6.28;;;5.50;;
76380;SDS011;65202;52.520;10.528;2023-07-29T10:47:13;9.93;;;7.50;;
76380;SDS011;65202;52.520;10.528;2023-07-29T10:49:41;9.88;;;8.55;;
76380;SDS011;65202;52.520;10.528;2023-07-29T10:52:15;12.93;;;9.73;;
76380;SDS011;65202;52.520;10.528;2023-07-29T10:54:54;5.95;;;5.45;;
76380;SDS011;65202;52.520;10.528;2023-07-29T10:57:34;5.53;;;5.05;;
76380;SDS011;65202;52.520;10.528;2023-07-29T11:00:04;5.50;;;4.97;;
76380;SDS011;65202;52.520;10.528;2023-07-29T11:02:33;6.97;;;5.20;;
76380;SDS011;65202;52.520;10.528;2023-07-29T11:05:16;6.32;;;4.60;;
76380;SDS011;65202;52.520;10.528;2023-07-29T11:07:45;7.20;;;4.72;;
76380;SDS011;65202;52.520;10.528;2023-07-29T11:10:15;5.50;;;5.05;;
76380;SDS011;65202;52.520;10.528;2023-07-29T11:12:49;5.50;;;4.40;;
76380;SDS011;65202;52.520;10.528;2023-07-29T11:15:22;7.97;;;6.43;;
76380;SDS011;65202;52.520;10.528;2023-07-29T11:17:58;9.07;;;5.47;;
76380;SDS011;65202;52.520;10.528;2023-07-29T11:20:29;9.10;;;4.50;;
76380;SDS011;65202;52.520;10.528;2023-07-29T11:23:01;5.57;;;4.72;;
76380;SDS011;65202;52.520;10.528;2023-07-29T11:25:30;6.38;;;4.90;;
76380;SDS011;65202;52.520;10.528;2023-07-29T11:28:00;7.57;;;5.72;;
76380;SDS011;65202;52.520;10.528;2023-07-29T11:30:32;12.88;;;7.82;;
76380;SDS011;65202;52.520;10.528;2023-07-29T11:33:01;7.25;;;6.20;;
76380;SDS011;65202;52.520;10.528;2023-07-29T11:35:28;7.00;;;6.18;;
76380;SDS011;65202;52.520;10.528;2023-07-29T11:37:55;7.32;;;6.20;;
76380;SDS011;65202;52.520;10.528;2023-07-29T11:40:24;7.20;;;6.50;;
76380;SDS011;65202;52.520;10.528;2023-07-29T11:42:52;6.70;;;6.10;;
76380;SDS011;65202;52.520;10.528;2023-07-29T11:45:20;7.78;;;6.43;;
76380;SDS011;65202;52.520;10.528;2023-07-29T11:47:55;8.65;;;6.22;;
76380;SDS011;65202;52.520;10.528;2023-07-29T11:50:23;8.15;;;6.07;;
76380;SDS011;65202;52.520;10.528;2023-07-29T11:52:50;8.93;;;6.68;;
76380;SDS011;65202;52.520;10.528;2023-07-29T11:55:17;8.52;;;7.00;;
76380;SDS011;65202;52.520;10.528;2023-07-29T11:57:46;8.05;;;7.20;;
76380;SDS011;65202;52.520;10.528;2023-07-29T12:00:19;8.60;;;6.80;;
76380;SDS011;65202;52.520;10.528;2023-07-29T12:02:48;10.70;;;7.43;;
76380;SDS011;65202;52.520;10.528;2023-07-29T12:05:17;11.95;;;7.50;;
76380;SDS011;65202;52.520;10.528;2023-07-29T12:07:48;9.10;;;7.05;;
76380;SDS011;65202;52.520;10.528;2023-07-29T12:10:16;10.80;;;7.03;;
76380;SDS011;65202;52.520;10.528;2023-07-29T12:12:46;7.32;;;6.63;;
76380;SDS011;65202;52.520;10.528;2023-07-29T12:15:24;7.88;;;7.18;;
76380;SDS011;65202;52.520;10.528;2023-07-29T12:17:57;10.23;;;7.55;;
76380;SDS011;65202;52.520;10.528;2023-07-29T12:20:26;7.32;;;6.63;;
76380;SDS011;65202;52.520;10.528;2023-07-29T12:22:56;10.20;;;6.53;;
76380;SDS011;65202;52.520;10.528;2023-07-29T12:25:29;7.70;;;6.90;;
76380;SDS011;65202;52.520;10.528;2023-07-29T12:28:01;7.72;;;6.90;;
76380;SDS011;65202;52.520;10.528;2023-07-29T12:30:31;7.95;;;5.80;;
76380;SDS011;65202;52.520;10.528;2023-07-29T12:32:59;7.32;;;5.40;;
76380;SDS011;65202;52.520;10.528;2023-07-29T12:35:33;5.38;;;4.88;;
76380;SDS011;65202;52.520;10.528;2023-07-29T12:38:03;6.47;;;5.65;;
76380;SDS011;65202;52.520;10.528;2023-07-29T12:40:30;5.32;;;4.82;;
76380;SDS011;65202;52.520;10.528;2023-07-29T12:42:57;7.47;;;4.65;;
76380;SDS011;65202;52.520;10.528;2023-07-29T12:45:25;4.45;;;4.05;;
76380;SDS011;65202;52.520;10.528;2023-07-29T12:47:55;7.00;;;4.15;;
76380;SDS011;65202;52.520;10.528;2023-07-29T12:50:23;5.72;;;4.15;;
76380;SDS011;65202;52.520;10.528;2023-07-29T12:52:50;7.88;;;4.28;;
76380;SDS011;65202;52.520;10.528;2023-07-29T12:55:17;8.00;;;4.30;;
76380;SDS011;65202;52.520;10.528;2023-07-29T12:57:49;12.20;;;4.33;;
76380;SDS011;65202;52.520;10.528;2023-07-29T13:00:17;6.97;;;4.10;;
76380;SDS011;65202;52.520;10.528;2023-07-29T13:02:45;6.75;;;3.83;;
76380;SDS011;65202;52.520;10.528;2023-07-29T13:05:12;5.63;;;3.80;;
76380;SDS011;65202;52.520;10.528;2023-07-29T13:07:40;8.50;;;3.90;;
76380;SDS011;65202;52.520;10.528;2023-07-29T13:10:08;6.05;;;4.40;;
76380;SDS011;65202;52.520;10.528;2023-07-29T13:12:37;3.85;;;3.08;;
76380;SDS011;65202;52.520;10.528;2023-07-29T13:15:05;3.45;;;2.30;;
76380;SDS011;65202;52.520;10.528;2023-07-29T13:17:33;7.75;;;1.80;;
76380;SDS011;65202;52.520;10.528;2023-07-29T13:20:01;3.95;;;1.60;;
76380;SDS011;65202;52.520;10.528;2023-07-29T13:22:29;1.67;;;1.40;;
76380;SDS011;65202;52.520;10.528;2023-07-29T13:24:56;3.10;;;2.45;;
76380;SDS011;65202;52.520;10.528;2023-07-29T13:27:23;1.67;;;1.58;;
76380;SDS011;65202;52.520;10.528;2023-07-29T13:29:52;3.22;;;1.42;;
76380;SDS011;65202;52.520;10.528;2023-07-29T13:32:19;1.73;;;1.40;;
76380;SDS011;65202;52.520;10.528;2023-07-29T13:34:46;4.03;;;1.35;;
76380;SDS011;65202;52.520;10.528;2023-07-29T13:37:14;1.60;;;1.20;;
76380;SDS011;65202;52.520;10.528;2023-07-29T13:39:41;1.35;;;1.20;;
76380;SDS011;65202;52.520;10.528;2023-07-29T13:42:08;3.40;;;1.33;;
76380;SDS011;65202;52.520;10.528;2023-07-29T13:44:35;1.20;;;1.10;;
76380;SDS011;65202;52.520;10.528;2023-07-29T13:47:03;1.10;;;1.00;;
76380;SDS011;65202;52.520;10.528;2023-07-29T13:49:30;3.65;;;1.00;;
76380;SDS011;65202;52.520;10.528;2023-07-29T13:51:57;1.35;;;1.10;;
76380;SDS011;65202;52.520;10.528;2023-07-29T13:54:25;2.00;;;1.17;;
76380;SDS011;65202;52.520;10.528;2023-07-29T13:56:52;6.85;;;1.40;;
76380;SDS011;65202;52.520;10.528;2023-07-29T13:59:20;1.92;;;1.38;;
76380;SDS011;65202;52.520;10.528;2023-07-29T14:01:48;1.95;;;1.20;;
76380;SDS011;65202;52.520;10.528;2023-07-29T14:04:15;1.70;;;1.40;;
76380;SDS011;65202;52.520;10.528;2023-07-29T14:06:42;5.78;;;1.55;;
76380;SDS011;65202;52.520;10.528;2023-07-29T14:09:13;2.83;;;2.35;;
76380;SDS011;65202;52.520;10.528;2023-07-29T14:11:40;3.38;;;1.70;;
76380;SDS011;65202;52.520;10.528;2023-07-29T14:14:08;3.65;;;1.20;;
76380;SDS011;65202;52.520;10.528;2023-07-29T14:16:36;3.67;;;1.52;;
76380;SDS011;65202;52.520;10.528;2023-07-29T14:19:03;1.40;;;1.30;;
76380;SDS011;65202;52.520;10.528;2023-07-29T14:21:31;2.20;;;1.40;;
76380;SDS011;65202;52.520;10.528;2023-07-29T14:23:58;2.13;;;1.50;;
76380;SDS011;65202;52.520;10.528;2023-07-29T14:26:25;2.97;;;1.40;;
76380;SDS011;65202;52.520;10.528;2023-07-29T14:28:53;2.70;;;1.40;;
76380;SDS011;65202;52.520;10.528;2023-07-29T14:31:20;3.28;;;1.48;;
76380;SDS011;65202;52.520;10.528;2023-07-29T14:33:47;3.08;;;1.30;;
76380;SDS011;65202;52.520;10.528;2023-07-29T14:36:16;1.88;;;1.40;;
76380;SDS011;65202;52.520;10.528;2023-07-29T14:38:43;2.22;;;1.27;;
76380;SDS011;65202;52.520;10.528;2023-07-29T14:41:11;2.00;;;1.33;;
76380;SDS011;65202;52.520;10.528;2023-07-29T14:43:38;7.38;;;1.50;;
76380;SDS011;65202;52.520;10.528;2023-07-29T14:46:05;2.42;;;1.30;;
76380;SDS011;65202;52.520;10.528;2023-07-29T14:48:33;1.85;;;1.40;;
76380;SDS011;65202;52.520;10.528;2023-07-29T14:51:00;1.58;;;1.33;;